Terminal Aerodrome Forecast
Issued by NWS

Home | Current Version | Previous Version | Text Only | Print | Product List | Glossary On
Versions: 1 2 3 4 5 6 7 8 9 10 11 12 13 14 15 16 17 18 19 20 21 22 23
270
FTUS41 KCAR 110659 AAE
TAFBHB
TAF AMD
KBHB 110659Z 1107/1206 29004KT 3SM -SHSN BR SCT005 OVC025
     FM111100 34006KT P6SM VCSH OVC025
     FM111800 34008KT P6SM BKN035
     FM120000 32013KT 6SM -SHSN BKN030
     FM120300 32014KT P6SM BKN035
      AMD LTD TO CLD VIS AND WIND=

USA.gov is the U.S. government's official web portal to all federal, state and local government web resources and services.